Time;durP1;ratioP1;P1;durP2;ratioP2;P2;SDS_P1;SDS_P2;PMS_P1;PMS_P2;Temp;Humidity;BMP_temperature;BMP_pressure;BME280_temperature;BME280_humidity;BME280_pressure;Samples;Min_cycle;Max_cycle;Signal;HPM_P1;HPM_P2
2022/08/07 00:02:05;;;;;;;3.20;1.27;;;;;;;14.70;69.46;102361.97;5032047;28;20033;-83
2022/08/07 00:04:31;;;;;;;2.15;1.05;;;;;;;14.56;70.38;102351.97;5033930;28;20033;-82
2022/08/07 00:06:56;;;;;;;2.10;1.35;;;;;;;14.52;70.69;102361.88;5032864;28;20032;-83
2022/08/07 00:09:22;;;;;;;2.05;1.20;;;;;;;14.51;71.03;102355.00;5052214;28;20021;-83
2022/08/07 00:11:47;;;;;;;4.32;1.38;;;;;;;14.49;71.24;102358.75;5033949;28;20025;-82
2022/08/07 00:14:13;;;;;;;4.75;2.42;;;;;;;14.48;71.32;102351.88;5044669;28;20026;-82
2022/08/07 00:16:38;;;;;;;2.70;1.17;;;;;;;14.46;71.39;102352.00;5048206;28;20029;-82
2022/08/07 00:19:04;;;;;;;2.42;1.40;;;;;;;14.48;71.36;102355.28;5034486;28;20083;-81
2022/08/07 00:21:31;;;;;;;3.13;1.33;;;;;;;14.49;71.18;102345.69;5029540;28;20041;-82
2022/08/07 00:23:57;;;;;;;3.50;1.92;;;;;;;14.50;70.82;102345.53;5045397;28;20029;-83
2022/08/07 00:26:22;;;;;;;3.92;1.33;;;;;;;14.50;70.43;102342.09;5033193;28;20032;-82
2022/08/07 00:28:48;;;;;;;3.88;1.65;;;;;;;14.47;70.77;102343.22;5034258;28;20509;-80
2022/08/07 00:31:13;;;;;;;2.95;1.50;;;;;;;14.47;70.53;102340.63;5017155;28;20029;-82
2022/08/07 00:33:39;;;;;;;4.05;1.48;;;;;;;14.47;70.49;102335.38;5035271;28;20033;-82
2022/08/07 00:36:06;;;;;;;2.10;1.70;;;;;;;14.40;71.12;102329.09;5031130;28;20055;-83
2022/08/07 00:38:34;;;;;;;3.40;1.50;;;;;;;14.35;71.50;102333.91;5034038;28;20766;-82
2022/08/07 00:41:00;;;;;;;4.30;1.70;;;;;;;14.27;71.65;102329.41;5030638;28;20640;-82
2022/08/07 00:43:26;;;;;;;1.90;1.25;;;;;;;14.20;72.11;102326.56;5030934;28;20068;-82
2022/08/07 00:45:51;;;;;;;4.95;1.67;;;;;;;14.20;72.11;102323.97;5031349;28;21936;-82
2022/08/07 00:48:17;;;;;;;4.70;1.60;;;;;;;14.20;72.14;102329.19;5030798;28;20040;-82
2022/08/07 00:50:42;;;;;;;3.10;1.70;;;;;;;14.17;72.57;102331.25;5035583;28;20401;-82
2022/08/07 00:53:08;;;;;;;2.05;1.33;;;;;;;14.17;72.88;102324.25;5029101;28;20033;-82
2022/08/07 00:55:34;;;;;;;6.15;2.00;;;;;;;14.13;72.50;102320.28;5019640;28;20028;-82
2022/08/07 00:58:01;;;;;;;4.03;1.70;;;;;;;14.07;72.93;102320.84;5047842;28;20025;-82
2022/08/07 01:00:27;;;;;;;5.72;1.90;;;;;;;14.06;72.92;102318.38;5034215;28;20092;-80
2022/08/07 01:02:53;;;;;;;2.22;1.75;;;;;;;14.06;72.70;102319.19;5027434;28;20041;-82
2022/08/07 01:05:20;;;;;;;5.40;2.00;;;;;;;14.07;72.55;102320.84;5016662;28;20029;-82
2022/08/07 01:07:47;;;;;;;2.88;1.60;;;;;;;14.05;72.62;102317.53;5025267;28;20036;-83
2022/08/07 01:10:12;;;;;;;8.52;2.10;;;;;;;14.01;73.13;102322.25;5031105;28;20033;-83
2022/08/07 01:12:40;;;;;;;3.42;1.70;;;;;;;13.93;73.55;102316.91;5029245;28;20036;-82
2022/08/07 01:15:06;;;;;;;5.63;2.03;;;;;;;13.83;74.11;102308.28;5031200;28;20509;-83
2022/08/07 01:17:33;;;;;;;2.97;2.08;;;;;;;13.69;75.11;102309.53;5033403;28;20048;-82
2022/08/07 01:20:08;;;;;;;4.22;1.88;;;;;;;13.63;75.30;102302.28;5034468;28;20966;-83
2022/08/07 01:22:37;;;;;;;4.03;1.90;;;;;;;13.63;75.33;102304.88;5033326;28;20063;-82
2022/08/07 01:25:03;;;;;;;2.92;1.60;;;;;;;13.61;75.28;102302.41;5017614;28;20171;-83
2022/08/07 01:27:29;;;;;;;2.63;1.50;;;;;;;13.60;75.22;102298.19;5027974;28;20035;-82
2022/08/07 01:29:55;;;;;;;5.38;1.70;;;;;;;13.55;75.54;102304.78;5017613;28;20593;-82
2022/08/07 01:32:20;;;;;;;4.50;1.90;;;;;;;13.53;75.78;102307.50;5028976;28;20021;-82
2022/08/07 01:34:48;;;;;;;3.40;1.70;;;;;;;13.55;75.75;102309.97;5032088;28;20390;-82
2022/08/07 01:37:16;;;;;;;3.03;1.92;;;;;;;13.47;76.19;102308.06;5041957;28;20031;-82
2022/08/07 01:39:46;;;;;;;3.55;2.08;;;;;;;13.45;76.42;102299.56;5033926;28;20031;-81
2022/08/07 01:42:28;;;;;;;4.50;2.53;;;;;;;13.48;75.98;102294.06;5044599;28;20092;-83
2022/08/07 01:44:53;;;;;;;5.07;3.10;;;;;;;13.50;75.79;102289.53;5032877;28;20039;-83
2022/08/07 01:47:20;;;;;;;3.78;2.40;;;;;;;13.51;75.38;102293.78;5014656;28;20029;-83
2022/08/07 01:49:45;;;;;;;3.95;2.33;;;;;;;13.53;75.13;102297.09;5034204;28;20452;-82
2022/08/07 01:52:13;;;;;;;4.95;2.40;;;;;;;13.52;75.02;102294.59;5042992;28;20044;-83
2022/08/07 01:54:40;;;;;;;5.72;2.17;;;;;;;13.53;74.94;102298.88;5033538;28;20033;-82
2022/08/07 01:57:27;;;;;;;4.60;2.22;;;;;;;13.46;75.56;102301.19;5045861;28;20196;-82
2022/08/07 02:00:04;;;;;;;6.03;2.28;;;;;;;13.42;76.08;102303.25;5031434;28;20033;-82
2022/08/07 02:02:43;;;;;;;5.38;2.20;;;;;;;13.37;76.47;102302.03;5047683;28;20036;-82
2022/08/07 02:05:26;;;;;;;4.32;2.22;;;;;;;13.28;77.11;102298.44;5024818;28;20082;-82
2022/08/07 02:07:55;;;;;;;3.35;2.38;;;;;;;13.25;77.34;102296.09;5029247;28;20497;-83
2022/08/07 02:10:32;;;;;;;5.00;2.42;;;;;;;13.22;77.42;102296.38;5027910;28;20110;-82
2022/08/07 02:13:02;;;;;;;5.25;2.50;;;;;;;13.22;77.32;102291.16;5030210;28;20029;-83
2022/08/07 02:15:37;;;;;;;6.00;2.65;;;;;;;13.22;77.48;102285.94;5031365;28;20032;-82
2022/08/07 02:18:05;;;;;;;6.07;2.10;;;;;;;13.22;76.90;102284.19;5021651;28;20041;-82
2022/08/07 02:20:32;;;;;;;5.13;2.78;;;;;;;13.23;77.03;102285.00;5031753;28;20025;-82
2022/08/07 02:23:03;;;;;;;5.35;2.08;;;;;;;13.18;77.59;102289.78;5032391;28;20605;-82
2022/08/07 02:25:33;;;;;;;6.70;2.50;;;;;;;13.17;77.37;102288.16;5027065;28;20616;-82
2022/08/07 02:28:01;;;;;;;5.72;2.30;;;;;;;13.15;77.64;102285.69;5027740;28;20063;-82
2022/08/07 02:30:27;;;;;;;5.05;2.60;;;;;;;13.14;77.65;102284.03;5027377;28;20033;-82
2022/08/07 02:32:56;;;;;;;4.95;2.17;;;;;;;13.15;77.39;102287.47;5030389;28;20395;-82
2022/08/07 02:35:22;;;;;;;3.92;2.42;;;;;;;13.15;77.34;102287.47;5032678;28;20060;-82
2022/08/07 02:37:54;;;;;;;5.15;2.83;;;;;;;13.14;77.04;102283.22;5028320;28;20128;-82
2022/08/07 02:40:19;;;;;;;4.40;2.42;;;;;;;13.12;76.77;102291.16;5028270;28;20417;-82
2022/08/07 02:42:46;;;;;;;7.68;2.33;;;;;;;13.11;76.98;102280.88;5014562;28;20086;-82
2022/08/07 02:45:18;;;;;;;4.55;2.30;;;;;;;13.08;77.32;102284.59;5027300;28;20489;-82
2022/08/07 02:47:44;;;;;;;3.55;2.08;;;;;;;13.04;77.47;102284.03;5032110;28;20025;-83
2022/08/07 02:50:13;;;;;;;4.05;2.60;;;;;;;13.03;77.36;102282.41;5030955;28;20032;-83
2022/08/07 02:52:50;;;;;;;4.88;2.40;;;;;;;13.02;77.34;102287.75;5031566;28;20920;-83
2022/08/07 02:55:18;;;;;;;4.13;2.75;;;;;;;12.98;77.62;102284.59;5030116;28;20079;-82
2022/08/07 02:57:47;;;;;;;3.90;2.50;;;;;;;12.97;77.54;102274.31;5024087;28;20039;-83
2022/08/07 03:00:14;;;;;;;5.30;2.60;;;;;;;12.95;77.77;102286.63;5025227;28;20036;-83
2022/08/07 03:02:44;;;;;;;6.28;2.40;;;;;;;12.92;78.14;102279.94;5012055;28;20041;-83
2022/08/07 03:05:10;;;;;;;7.07;3.40;;;;;;;12.89;78.24;102284.56;5027070;28;20025;-83
2022/08/07 03:07:37;;;;;;;4.85;2.58;;;;;;;12.85;78.36;102279.63;5026163;28;20025;-83
2022/08/07 03:10:04;;;;;;;3.85;3.17;;;;;;;12.84;78.32;102274.56;5028082;28;20514;-83
2022/08/07 03:12:31;;;;;;;7.75;3.00;;;;;;;12.83;78.09;102275.53;5041724;28;20025;-82
2022/08/07 03:15:06;;;;;;;5.63;2.60;;;;;;;12.81;78.51;102274.84;5028478;28;20506;-83
2022/08/07 03:17:33;;;;;;;11.13;3.35;;;;;;;12.77;78.92;102284.69;5028532;28;20211;-82
2022/08/07 03:20:00;;;;;;;3.17;2.10;;;;;;;12.75;78.81;102283.16;5028991;28;20111;-83
2022/08/07 03:22:28;;;;;;;5.60;2.80;;;;;;;12.70;78.72;102278.38;5028271;28;20112;-83
2022/08/07 03:24:55;;;;;;;4.55;2.60;;;;;;;12.66;78.99;102277.81;5031985;28;20036;-83
2022/08/07 03:27:21;;;;;;;3.55;2.53;;;;;;;12.68;78.87;102282.06;5027507;28;20029;-83
2022/08/07 03:29:50;;;;;;;6.95;3.28;;;;;;;12.65;78.76;102276.16;5042957;28;20111;-82
2022/08/07 03:32:21;;;;;;;4.40;3.10;;;;;;;12.61;78.99;102273.97;5027272;28;20030;-82
2022/08/07 03:34:48;;;;;;;4.40;3.03;;;;;;;12.58;79.44;102276.81;5030576;28;20025;-82
2022/08/07 03:37:18;;;;;;;4.55;2.90;;;;;;;12.54;79.36;102275.44;5011664;28;20172;-82
2022/08/07 03:39:46;;;;;;;7.68;3.13;;;;;;;12.52;79.24;102270.38;5014670;28;20021;-83
2022/08/07 03:42:14;;;;;;;5.22;3.53;;;;;;;12.50;78.97;102274.88;5031136;28;20040;-83
2022/08/07 03:44:40;;;;;;;6.20;3.05;;;;;;;12.50;79.38;102277.50;5034712;28;20033;-83
2022/08/07 03:47:08;;;;;;;4.97;3.47;;;;;;;12.48;78.96;102276.81;5021861;28;20033;-83
2022/08/07 03:49:34;;;;;;;3.83;3.05;;;;;;;12.47;79.11;102277.78;5035524;28;20082;-81
2022/08/07 03:52:01;;;;;;;4.68;3.35;;;;;;;12.44;79.01;102275.44;5035367;28;20044;-83
2022/08/07 03:54:28;;;;;;;6.32;3.30;;;;;;;12.41;79.22;102270.47;5031940;28;20025;-83
2022/08/07 03:56:55;;;;;;;4.90;3.20;;;;;;;12.38;79.48;102270.75;5029123;28;21952;-83
2022/08/07 03:59:21;;;;;;;5.82;3.10;;;;;;;12.34;79.60;102266.75;5035998;28;20032;-82
2022/08/07 04:01:53;;;;;;;5.13;3.20;;;;;;;12.29;79.90;102269.75;5041349;28;20058;-82
2022/08/07 04:04:22;;;;;;;4.75;3.38;;;;;;;12.25;79.90;102269.19;5034200;28;20033;-82
2022/08/07 04:06:52;;;;;;;6.18;3.20;;;;;;;12.23;80.38;102271.13;5031854;28;20036;-82
2022/08/07 04:09:20;;;;;;;7.35;3.28;;;;;;;12.22;80.10;102269.47;5034884;28;20029;-83
2022/08/07 04:11:49;;;;;;;7.10;3.47;;;;;;;12.20;80.29;102267.94;5046696;28;20029;-83
2022/08/07 04:14:16;;;;;;;5.18;3.35;;;;;;;12.19;80.66;102268.91;5032831;28;20026;-82
2022/08/07 04:16:41;;;;;;;3.67;3.00;;;;;;;12.14;81.04;102264.09;5035592;28;20030;-81
2022/08/07 04:19:07;;;;;;;5.75;3.75;;;;;;;12.16;81.10;102269.16;5032149;28;20068;-83
2022/08/07 04:21:34;;;;;;;6.38;3.67;;;;;;;12.17;80.48;102263.03;5032557;28;20032;-82
2022/08/07 04:24:09;;;;;;;7.53;4.03;;;;;;;12.16;80.77;102264.78;5031323;28;20680;-82
2022/08/07 04:26:38;;;;;;;5.80;3.90;;;;;;;12.11;81.31;102271.31;5028913;28;20394;-82
2022/08/07 04:29:06;;;;;;;8.23;4.38;;;;;;;12.04;81.95;102265.84;5046957;28;20086;-82
2022/08/07 04:31:32;;;;;;;5.70;3.33;;;;;;;12.05;82.10;102268.31;5024346;28;20035;-83
2022/08/07 04:33:58;;;;;;;5.18;3.53;;;;;;;12.08;81.77;102267.22;5017044;28;20119;-82
2022/08/07 04:36:24;;;;;;;4.65;3.35;;;;;;;12.10;81.25;102267.09;5030702;28;20031;-82
2022/08/07 04:38:50;;;;;;;7.22;3.97;;;;;;;12.13;81.17;102277.22;5039547;28;20080;-81
2022/08/07 04:41:15;;;;;;;6.72;3.50;;;;;;;12.12;81.47;102275.59;5029567;28;20413;-82
2022/08/07 04:43:45;;;;;;;5.60;4.07;;;;;;;12.08;82.08;102280.22;5045721;28;20460;-82
2022/08/07 04:46:17;;;;;;;6.82;3.83;;;;;;;12.06;83.12;102276.94;5012508;28;20056;-82
2022/08/07 04:48:53;;;;;;;9.48;4.20;;;;;;;12.08;83.35;102285.41;5013882;28;20065;-82
2022/08/07 04:51:53;;;;;;;7.10;4.40;;;;;;;12.10;83.40;102283.50;5044819;28;20056;-83
2022/08/07 04:54:34;;;;;;;6.05;4.18;;;;;;;12.07;83.87;102282.00;5032054;28;20033;-83
2022/08/07 04:57:20;;;;;;;6.10;4.20;;;;;;;12.05;84.34;102276.13;5035914;28;20044;-83
2022/08/07 04:59:56;;;;;;;6.82;4.18;;;;;;;12.06;85.10;102274.34;5041089;28;20044;-82
2022/08/07 05:02:27;;;;;;;5.95;4.72;;;;;;;12.07;85.10;102273.34;5033103;28;20047;-82
2022/08/07 05:05:03;;;;;;;7.72;4.53;;;;;;;12.08;85.20;102277.63;5033098;28;20054;-83
2022/08/07 05:07:42;;;;;;;8.60;4.85;;;;;;;12.12;85.39;102284.19;5012171;28;20121;-83
2022/08/07 05:10:18;;;;;;;6.72;4.88;;;;;;;12.13;85.48;102285.88;5029162;28;20044;-82
2022/08/07 05:13:15;;;;;;;9.65;6.30;;;;;;;12.16;85.85;102287.38;5042130;28;20029;-82
2022/08/07 05:15:43;;;;;;;8.48;5.47;;;;;;;12.17;85.87;102282.03;5025258;28;20047;-82
2022/08/07 05:18:18;;;;;;;7.10;5.35;;;;;;;12.23;85.72;102294.50;5042804;28;20124;-82
2022/08/07 05:20:48;;;;;;;8.02;5.07;;;;;;;12.32;85.01;102294.69;5039892;28;20486;-81
2022/08/07 05:23:25;;;;;;;8.35;4.28;;;;;;;12.39;84.45;102293.19;5032214;28;21285;-82
2022/08/07 05:25:52;;;;;;;10.38;5.38;;;;;;;12.44;84.10;102296.25;5029005;28;20029;-83
2022/08/07 05:28:20;;;;;;;11.88;5.43;;;;;;;12.50;84.91;102294.88;5031925;28;20032;-83
2022/08/07 05:30:46;;;;;;;10.27;5.20;;;;;;;12.53;84.65;102295.44;5031423;28;20025;-83
2022/08/07 05:33:13;;;;;;;10.10;6.53;;;;;;;12.57;85.36;102303.81;5033538;28;20136;-82
2022/08/07 05:35:40;;;;;;;10.30;5.85;;;;;;;12.57;85.93;102307.22;5035485;28;20043;-82
2022/08/07 05:38:08;;;;;;;16.45;7.28;;;;;;;12.57;86.82;102304.63;5030238;28;20089;-82
2022/08/07 05:40:36;;;;;;;10.73;7.30;;;;;;;12.66;86.86;102308.22;5044504;28;20029;-82
2022/08/07 05:43:04;;;;;;;10.38;6.05;;;;;;;12.73;87.08;102311.09;5030533;28;20035;-82
2022/08/07 05:45:30;;;;;;;9.70;6.00;;;;;;;12.78;87.33;102312.34;5032441;28;20029;-82
2022/08/07 05:48:02;;;;;;;11.70;6.07;;;;;;;12.79;87.57;102308.81;5029956;28;20025;-82
2022/08/07 05:50:33;;;;;;;11.32;6.93;;;;;;;12.90;87.54;102312.25;5030834;28;20032;-81
2022/08/07 05:53:02;;;;;;;6.93;5.15;;;;;;;12.89;87.35;102308.81;5029391;28;20036;-82
2022/08/07 05:55:31;;;;;;;7.28;5.53;;;;;;;12.98;87.26;102309.81;5031937;28;20475;-83
2022/08/07 05:57:59;;;;;;;10.32;6.75;;;;;;;13.06;87.03;102307.34;5028929;28;20063;-82
2022/08/07 06:00:27;;;;;;;8.18;5.70;;;;;;;13.22;86.58;102306.78;5044584;28;20037;-81
2022/08/07 06:03:00;;;;;;;7.47;5.97;;;;;;;13.48;85.83;102307.09;5030543;28;20029;-82
2022/08/07 06:05:27;;;;;;;9.93;6.30;;;;;;;13.86;84.36;102312.38;5030209;28;20025;-81
2022/08/07 06:07:56;;;;;;;10.15;5.47;;;;;;;14.33;82.52;102312.38;5044929;28;20029;-81
2022/08/07 06:10:24;;;;;;;12.10;6.47;;;;;;;14.83;79.99;102313.81;5029364;28;20716;-82
2022/08/07 06:12:50;;;;;;;10.73;6.35;;;;;;;15.24;77.24;102309.78;5013412;28;20061;-82
2022/08/07 06:15:17;;;;;;;7.78;5.68;;;;;;;15.48;75.41;102314.41;5030816;28;20035;-82
2022/08/07 06:17:44;;;;;;;10.23;5.03;;;;;;;15.82;74.41;102312.84;5016731;28;20021;-81
2022/08/07 06:20:10;;;;;;;9.23;5.90;;;;;;;16.08;73.22;102313.66;5024016;28;20164;-82
2022/08/07 06:22:38;;;;;;;8.65;5.45;;;;;;;16.27;72.64;102315.22;5029544;28;20495;-81
2022/08/07 06:25:17;;;;;;;8.98;5.38;;;;;;;16.67;71.27;102311.13;5013131;28;20111;-82
2022/08/07 06:27:42;;;;;;;9.07;4.80;;;;;;;16.95;71.08;102310.06;5030726;28;20058;-80
2022/08/07 06:30:08;;;;;;;8.10;5.18;;;;;;;17.08;69.53;102302.53;5013759;28;20035;-80
2022/08/07 06:32:34;;;;;;;10.00;5.30;;;;;;;17.15;67.96;102308.78;5026416;28;20029;-81
2022/08/07 06:35:03;;;;;;;7.30;5.00;;;;;;;17.23;67.91;102311.38;5025241;28;20032;-82
2022/08/07 06:37:29;;;;;;;8.70;5.25;;;;;;;17.38;67.67;102306.31;5028313;28;20032;-82
2022/08/07 06:39:55;;;;;;;10.32;6.00;;;;;;;17.41;67.25;102297.31;5027062;28;20037;-81
2022/08/07 06:42:24;;;;;;;16.35;8.95;;;;;;;17.54;66.91;102302.88;5042604;28;20037;-82
2022/08/07 06:45:10;;;;;;;10.18;5.13;;;;;;;17.74;66.06;102307.75;5039893;28;20060;-82
2022/08/07 06:47:36;;;;;;;6.53;4.18;;;;;;;17.79;65.33;102305.47;5030225;28;20742;-82
2022/08/07 06:50:04;;;;;;;7.70;4.60;;;;;;;17.74;65.06;102299.88;5024777;28;20033;-81
2022/08/07 06:52:36;;;;;;;9.25;4.50;;;;;;;17.64;64.89;102305.31;5015146;28;20404;-80
2022/08/07 06:55:05;;;;;;;7.32;4.05;;;;;;;17.60;65.16;102296.16;5027728;28;20119;-81
2022/08/07 06:57:32;;;;;;;6.22;3.97;;;;;;;17.55;65.36;102301.06;5017772;28;20119;-81
2022/08/07 06:59:58;;;;;;;5.95;3.63;;;;;;;17.48;65.61;102288.63;5043855;28;20047;-80
2022/08/07 07:02:25;;;;;;;5.85;4.00;;;;;;;17.73;64.70;102293.81;5018283;28;20029;-81
2022/08/07 07:04:51;;;;;;;6.30;3.65;;;;;;;18.12;63.81;102295.72;5036243;28;20029;-81
2022/08/07 07:07:21;;;;;;;5.95;3.60;;;;;;;18.41;60.04;102297.72;5026502;28;20044;-81
2022/08/07 07:09:49;;;;;;;4.03;2.72;;;;;;;19.00;57.48;102294.59;5028462;28;20059;-83
2022/08/07 07:12:35;;;;;;;10.90;3.10;;;;;;;19.67;55.92;102289.59;5034397;28;20140;-81
2022/08/07 07:15:29;;;;;;;6.32;3.50;;;;;;;20.34;53.68;102280.75;5026494;28;20405;-82
2022/08/07 07:18:10;;;;;;;3.60;2.83;;;;;;;20.90;53.25;102280.16;5028891;28;20044;-81
2022/08/07 07:21:00;;;;;;;4.00;2.47;;;;;;;21.73;49.95;102280.38;5044457;28;20390;-81
2022/08/07 07:23:28;;;;;;;4.95;2.63;;;;;;;22.25;48.65;102278.19;5030193;28;20037;-82
2022/08/07 07:26:01;;;;;;;7.47;2.90;;;;;;;22.64;48.18;102284.59;5048456;28;20107;-83
2022/08/07 07:28:35;;;;;;;8.02;3.30;;;;;;;22.71;46.58;102278.31;5026109;28;20039;-81
2022/08/07 07:31:05;;;;;;;4.68;2.40;;;;;;;23.11;46.05;102275.75;5028675;28;20036;-82
2022/08/07 07:33:33;;;;;;;5.10;2.95;;;;;;;23.51;44.21;102272.22;5049162;28;20078;-82
2022/08/07 07:36:02;;;;;;;13.52;3.45;;;;;;;23.70;44.53;102275.84;5027677;28;20041;-82
2022/08/07 07:38:29;;;;;;;10.27;2.60;;;;;;;23.39;44.87;102276.53;5031941;28;20428;-83
2022/08/07 07:40:59;;;;;;;5.20;2.40;;;;;;;23.75;45.02;102272.56;5044709;28;20033;-82
2022/08/07 07:43:27;;;;;;;6.00;3.42;;;;;;;24.06;43.87;102269.22;5048050;28;20122;-82
2022/08/07 07:45:53;;;;;;;3.25;1.92;;;;;;;24.56;43.34;102272.03;5014735;28;20068;-83
2022/08/07 07:48:20;;;;;;;7.43;3.33;;;;;;;24.77;42.34;102268.22;5029387;28;20084;-82
2022/08/07 07:50:49;;;;;;;6.15;2.45;;;;;;;25.06;41.21;102255.34;5015232;28;20044;-83
2022/08/07 07:53:17;;;;;;;4.53;2.08;;;;;;;25.45;39.76;102263.97;5033108;28;20033;-81
2022/08/07 07:55:43;;;;;;;3.05;1.80;;;;;;;25.76;39.63;102263.00;5039492;28;20044;-83
2022/08/07 07:58:09;;;;;;;4.90;1.90;;;;;;;25.66;39.89;102260.06;5029488;28;20037;-82
2022/08/07 08:00:35;;;;;;;3.13;2.10;;;;;;;25.61;38.76;102257.25;5044754;28;20036;-83
2022/08/07 08:03:14;;;;;;;2.13;1.50;;;;;;;25.73;39.07;102260.81;5025952;28;20033;-81
2022/08/07 08:05:41;;;;;;;2.90;1.60;;;;;;;25.35;37.88;102253.03;5028416;28;20037;-83
2022/08/07 08:08:09;;;;;;;1.65;1.15;;;;;;;25.87;37.29;102258.78;5030286;28;20044;-83
2022/08/07 08:10:36;;;;;;;3.20;1.30;;;;;;;25.80;37.09;102258.84;5025880;28;20037;-83
2022/08/07 08:13:04;;;;;;;1.70;1.10;;;;;;;25.94;36.20;102248.13;5024785;28;20090;-82
2022/08/07 08:15:38;;;;;;;1.90;0.95;;;;;;;26.01;36.21;102252.31;5028060;28;20067;-82
2022/08/07 08:18:10;;;;;;;3.72;1.30;;;;;;;26.31;34.61;102250.69;5029730;28;20039;-80
2022/08/07 08:20:37;;;;;;;3.67;1.85;;;;;;;26.36;34.50;102243.63;5024239;28;20079;-82
2022/08/07 08:28:39;;;;;;;3.63;1.58;;;;;;;26.83;35.66;102242.16;5047906;28;20497;-80
2022/08/07 08:31:15;;;;;;;3.00;1.30;;;;;;;26.79;35.36;102244.44;5030933;28;20120;-83
2022/08/07 08:33:42;;;;;;;1.55;1.10;;;;;;;27.04;34.45;102238.09;5034309;28;20021;-81
2022/08/07 08:36:42;;;;;;;3.80;1.00;;;;;;;27.17;33.67;102237.84;5034900;28;20049;-81
2022/08/07 08:39:08;;;;;;;2.38;0.95;;;;;;;27.15;33.59;102235.41;5014864;28;20044;-82
2022/08/07 08:41:46;;;;;;;4.18;1.45;;;;;;;27.24;32.80;102229.72;5032121;28;20108;-82
2022/08/07 08:44:27;;;;;;;6.43;1.30;;;;;;;27.24;34.06;102235.88;5029495;28;20757;-81
2022/08/07 08:47:12;;;;;;;2.88;0.93;;;;;;;27.07;32.80;102227.78;5034092;28;20529;-83
2022/08/07 08:49:55;;;;;;;2.65;1.00;;;;;;;27.38;32.19;102225.81;5027018;28;20037;-81
2022/08/07 08:53:05;;;;;;;2.45;0.90;;;;;;;27.60;31.75;102231.31;5031270;28;20038;-82
2022/08/07 08:55:39;;;;;;;2.70;1.05;;;;;;;27.35;32.02;102228.94;4996973;28;20063;-84
2022/08/07 08:58:30;;;;;;;1.98;1.10;;;;;;;27.50;31.99;102220.44;5034290;28;20029;-84
2022/08/07 09:01:10;;;;;;;1.75;1.00;;;;;;;27.65;30.80;102219.94;5034302;28;20041;-82
2022/08/07 09:04:02;;;;;;;2.58;0.90;;;;;;;27.71;31.23;102216.34;5048142;28;20045;-82
2022/08/07 09:06:58;;;;;;;2.22;1.00;;;;;;;27.47;31.16;102208.44;5048319;28;20033;-82
2022/08/07 09:09:58;;;;;;;2.13;0.70;;;;;;;26.70;31.99;102219.22;5033195;28;20056;-82
2022/08/07 09:12:33;;;;;;;3.05;0.60;;;;;;;27.09;30.81;102216.91;5033317;28;20073;-82
2022/08/07 09:15:05;;;;;;;3.42;0.77;;;;;;;27.36;30.97;102210.06;5034082;28;20450;-83
2022/08/07 09:18:05;;;;;;;1.67;0.70;;;;;;;27.63;29.38;102204.19;5046323;28;20811;-82
2022/08/07 09:21:11;;;;;;;3.22;1.35;;;;;;;27.58;29.26;102212.91;5046791;28;20060;-83
2022/08/07 09:23:50;;;;;;;1.52;0.60;;;;;;;27.45;27.67;102215.03;5031596;28;20021;-82
2022/08/07 09:26:44;;;;;;;0.50;0.30;;;;;;;27.61;27.58;102218.81;5034535;28;20028;-83
2022/08/07 09:29:38;;;;;;;1.25;0.32;;;;;;;27.55;28.27;102216.03;5016108;28;20036;-83
2022/08/07 09:32:19;;;;;;;0.73;0.40;;;;;;;27.76;28.56;102211.09;5004232;28;20195;-83
2022/08/07 09:35:11;;;;;;;1.92;0.60;;;;;;;27.57;28.24;102210.47;5033193;28;20120;-85
2022/08/07 09:37:43;;;;;;;2.40;0.57;;;;;;;27.50;28.71;102207.97;5027076;28;20044;-81
2022/08/07 09:40:37;;;;;;;1.13;0.43;;;;;;;27.58;29.32;102212.91;5034848;28;20044;-82
2022/08/07 09:43:39;;;;;;;1.15;0.47;;;;;;;27.46;29.39;102198.81;5031683;28;20049;-83
2022/08/07 09:46:33;;;;;;;3.10;1.13;;;;;;;27.26;29.49;102201.06;5034755;28;21583;-84
2022/08/07 09:49:15;;;;;;;2.30;0.80;;;;;;;27.01;30.09;102202.09;5035169;28;20029;-83
2022/08/07 09:52:26;;;;;;;3.05;0.88;;;;;;;26.90;30.74;102201.06;5033806;28;20020;-83
2022/08/07 09:55:03;;;;;;;0.80;0.63;;;;;;;26.75;30.27;102200.72;4998899;28;21409;-81
2022/08/07 09:57:58;;;;;;;1.35;0.80;;;;;;;27.09;29.03;102191.09;5033560;28;20554;-82
2022/08/07 10:00:31;;;;;;;0.70;0.40;;;;;;;27.55;27.20;102188.59;5031023;28;20033;-84
2022/08/07 10:03:11;;;;;;;;;;;;;;;27.53;28.25;102191.50;5033843;28;20032;-83
2022/08/07 10:06:21;;;;;;;1.02;0.40;;;;;;;27.72;27.80;102175.34;5047739;28;19958;-83
2022/08/07 10:09:05;;;;;;;1.65;0.80;;;;;;;27.59;28.59;102173.75;4996908;28;20463;-83
2022/08/07 10:11:49;;;;;;;1.27;0.57;;;;;;;27.40;29.71;102175.78;5032199;28;20065;-82
2022/08/07 10:14:46;;;;;;;1.75;0.75;;;;;;;27.04;30.19;102175.03;5015668;28;20979;-82
2022/08/07 10:17:44;;;;;;;1.23;0.60;;;;;;;27.14;29.92;102177.09;5031043;28;20044;-83
2022/08/07 10:20:46;;;;;;;1.90;0.68;;;;;;;27.49;30.23;102165.59;5030777;28;20044;-84
2022/08/07 10:23:33;;;;;;;2.47;0.83;;;;;;;27.69;29.73;102154.50;5002321;28;20174;-84
2022/08/07 10:26:36;;;;;;;3.60;1.00;;;;;;;27.95;29.25;102158.44;5031615;28;20040;-83
2022/08/07 10:29:29;;;;;;;4.32;1.10;;;;;;;28.11;27.67;102163.00;5046088;28;20033;-83
2022/08/07 10:32:10;;;;;;;;;;;;;;;27.45;29.65;102157.25;5017032;28;20060;-87
2022/08/07 10:35:08;;;;;;;4.05;0.75;;;;;;;27.03;29.46;102154.78;5046501;28;19955;-83
2022/08/07 10:38:13;;;;;;;2.67;0.70;;;;;;;27.33;30.09;102157.31;5036811;28;20075;-83
2022/08/07 10:40:51;;;;;;;4.13;1.10;;;;;;;27.57;29.92;102150.00;5021009;28;20029;-85
2022/08/07 10:43:29;;;;;;;4.78;0.98;;;;;;;27.47;29.94;102154.38;5045452;28;20394;-83
2022/08/07 10:45:59;;;;;;;3.35;1.20;;;;;;;27.11;30.18;102148.28;5030518;28;20056;-82
2022/08/07 10:48:58;;;;;;;4.18;1.60;;;;;;;26.94;29.97;102148.22;5030076;28;20401;-86
2022/08/07 10:51:49;;;;;;;3.67;1.33;;;;;;;27.07;30.17;102134.66;5047542;28;20057;-82
2022/08/07 10:54:31;;;;;;;2.45;1.23;;;;;;;27.30;30.64;102133.00;5034395;28;20040;-83
2022/08/07 10:57:24;;;;;;;3.15;1.08;;;;;;;27.48;29.57;102132.00;5051672;28;20535;-83
2022/08/07 11:00:04;;;;;;;3.83;1.45;;;;;;;27.53;29.81;102126.78;5047581;28;20033;-83
2022/08/07 11:02:40;;;;;;;4.13;1.50;;;;;;;27.45;29.26;102121.84;5044317;28;20040;-82
2022/08/07 11:05:40;;;;;;;4.78;1.73;;;;;;;27.49;30.03;102128.31;5030826;28;20572;-83
2022/08/07 11:08:31;;;;;;;7.70;1.85;;;;;;;26.77;29.79;102130.28;5028545;28;20033;-83
2022/08/07 11:11:17;;;;;;;6.03;1.88;;;;;;;26.78;29.95;102126.56;5016611;28;20038;-86
2022/08/07 11:13:48;;;;;;;4.05;1.52;;;;;;;26.96;29.86;102114.19;5032524;28;20429;-83
2022/08/07 11:16:25;;;;;;;3.30;1.17;;;;;;;27.02;29.44;102109.78;5029738;28;20110;-83
2022/08/07 11:18:58;;;;;;;4.63;1.20;;;;;;;26.98;29.75;102112.09;5035021;28;20041;-83
2022/08/07 11:21:35;;;;;;;3.15;1.42;;;;;;;27.03;29.22;102116.69;5017450;28;20056;-83
2022/08/07 11:24:28;;;;;;;4.97;1.80;;;;;;;26.84;29.89;102114.19;5031866;28;20037;-83
2022/08/07 11:27:08;;;;;;;3.28;1.35;;;;;;;27.11;29.75;102101.19;5044216;28;20064;-83
2022/08/07 11:29:54;;;;;;;2.50;1.30;;;;;;;27.48;28.56;102092.88;5029353;28;20040;-84
2022/08/07 11:32:30;;;;;;;2.85;1.83;;;;;;;27.33;28.43;102096.06;5045998;28;20048;-86
2022/08/07 11:34:58;;;;;;;5.25;1.10;;;;;;;27.55;29.16;102090.84;5029800;28;20063;-82
2022/08/07 11:38:03;;;;;;;2.50;1.00;;;;;;;27.62;28.04;102095.25;5039108;28;20029;-83
2022/08/07 11:40:34;;;;;;;3.97;1.00;;;;;;;27.40;29.59;102087.13;5032573;28;20059;-82
2022/08/07 11:43:07;;;;;;;2.65;0.82;;;;;;;27.55;29.45;102087.38;5046694;28;20110;-86
2022/08/07 11:45:43;;;;;;;1.92;0.68;;;;;;;27.56;28.71;102086.34;5016369;28;20536;-85
2022/08/07 11:49:01;;;;;;;2.28;0.77;;;;;;;27.09;29.96;102089.97;5047649;28;20039;-83
2022/08/07 11:51:31;;;;;;;4.22;0.82;;;;;;;27.16;28.15;102088.00;4967851;28;20039;-83
2022/08/07 11:54:19;;;;;;;4.07;1.10;;;;;;;27.11;28.02;102085.22;4943366;28;20069;-83
2022/08/07 11:57:03;;;;;;;6.72;3.90;;;;;;;26.96;29.78;102082.25;5008766;28;20049;-83
2022/08/07 11:59:46;;;;;;;2.70;0.85;;;;;;;27.33;28.65;102077.44;5016697;28;20068;-83
2022/08/07 12:02:17;;;;;;;3.70;1.02;;;;;;;27.32;29.00;102080.31;5032900;28;20108;-85